Terminal Aerodrome Forecast
Issued by NWS Blacksburg, VA

Home | Current Version | Previous Version | Text Only | Print | Product List | Glossary On
Versions: 1 2 3 4 5 6 7 8 9 10 11 12 13 14 15 16 17 18 19 20 21 22 23 24 25 26 27 28 29 30 31 32 33 34 35 36 37 38 39 40 41 42 43 44 45 46 47 48 49 50
000
FTUS41 KRNK 230600 RRA
TAFLYH
TAF
KLYH 230600Z 2306/2406 22004KT P6SM -SHRA SCT035 OVC090
     FM230900 32005KT 6SM -SHRA SCT015 OVC035
     FM231200 36005KT 6SM -SHRA SCT009 OVC015
     FM231800 02007KT P6SM BKN030
     FM232000 03006KT P6SM SCT035 BKN250
     FM240300 04004KT P6SM SCT250=

USA.gov is the U.S. government's official web portal to all federal, state and local government web resources and services.